Time;durP1;ratioP1;P1;durP2;ratioP2;P2;SDS_P1;SDS_P2;PMS_P1;PMS_P2;Temp;Humidity;BMP_temperature;BMP_pressure;BME280_temperature;BME280_humidity;BME280_pressure;Samples;Min_cycle;Max_cycle;Signal;HPM_P1;HPM_P2
2022/10/10 10:27:29;;;;;;;6.20;2.27;;;;;;;16.37;50.14;101533.14;124639;1102;104344;-77
2022/10/10 10:30:00;;;;;;;5.60;1.50;;;;;;;16.43;48.06;101528.02;124016;1105;104620;-76
2022/10/10 10:32:48;;;;;;;4.70;1.67;;;;;;;16.47;48.76;101522.84;124056;1105;104329;-77
2022/10/10 10:35:28;;;;;;;5.20;1.80;;;;;;;16.52;48.27;101523.86;124041;1105;102157;-77
2022/10/10 10:38:17;;;;;;;7.60;2.23;;;;;;;16.53;48.54;101523.02;124077;1103;104445;-77
2022/10/10 10:40:57;;;;;;;2.50;1.50;;;;;;;16.55;48.21;101507.16;124119;1105;104179;-79
2022/10/10 10:43:59;;;;;;;4.47;1.77;;;;;;;16.52;47.89;101510.61;123945;1105;104807;-77
2022/10/10 10:49:51;;;;;;;6.47;2.03;;;;;;;16.69;47.43;101499.58;124727;1103;104270;-75
2022/10/10 10:52:43;;;;;;;8.70;2.37;;;;;;;16.76;46.30;101505.94;123973;1105;104108;-75
2022/10/10 10:55:26;;;;;;;7.47;2.10;;;;;;;16.84;47.76;101505.30;123971;1102;104169;-75
2022/10/10 10:58:25;;;;;;;5.43;2.10;;;;;;;16.71;45.01;101508.46;124015;1105;104224;-77
2022/10/10 11:01:22;;;;;;;8.30;1.80;;;;;;;16.60;46.05;101501.98;124025;1105;104194;-76
2022/10/10 11:04:02;;;;;;;5.93;1.93;;;;;;;16.54;46.47;101497.41;124211;1105;104168;-75
2022/10/10 11:07:02;;;;;;;3.57;1.83;;;;;;;16.46;46.47;101513.09;125047;1105;101910;-76
2022/10/10 11:09:43;;;;;;;6.03;1.77;;;;;;;16.21;45.64;101513.27;123984;1105;104173;-76
2022/10/10 11:12:45;;;;;;;3.90;1.53;;;;;;;16.08;45.71;101510.27;124047;1102;104316;-76
2022/10/10 11:15:22;;;;;;;4.55;2.05;;;;;;;16.14;45.61;101499.85;124393;1102;102738;-77
2022/10/10 11:18:10;;;;;;;3.50;1.80;;;;;;;16.15;44.91;101506.92;124336;1102;103655;-76
2022/10/10 11:21:32;;;;;;;2.63;1.57;;;;;;;16.18;45.79;101493.77;124177;1102;102388;-77
2022/10/10 11:25:12;;;;;;;4.17;2.00;;;;;;;16.24;45.76;101494.82;124410;1102;104242;-76
2022/10/10 11:28:22;;;;;;;5.30;1.97;;;;;;;16.29;44.27;101488.78;124158;1102;104242;-76
2022/10/10 11:31:07;;;;;;;9.70;2.10;;;;;;;16.34;44.52;101488.91;124204;1102;104195;-75
2022/10/10 11:33:53;;;;;;;5.20;1.90;;;;;;;16.40;45.05;101481.13;124247;1102;102885;-76
2022/10/10 11:36:28;;;;;;;9.07;2.20;;;;;;;16.47;44.60;101483.11;125564;1101;101816;-76
2022/10/10 11:39:09;;;;;;;4.93;1.90;;;;;;;16.49;43.84;101476.09;124219;1102;104211;-77
2022/10/10 11:41:55;;;;;;;7.17;1.70;;;;;;;16.41;42.93;101472.34;124191;1102;104207;-76
2022/10/10 11:44:33;;;;;;;5.40;1.60;;;;;;;16.39;43.11;101468.73;124251;1101;103046;-76
2022/10/10 11:48:14;;;;;;;;;;;;;;;;;;;;;
2022/10/10 11:54:49;;;;;;;2.40;1.70;;;;;;;16.51;43.45;101462.88;124259;1102;104237;-78
2022/10/10 11:57:29;;;;;;;5.57;2.20;;;;;;;16.54;44.20;101469.15;124139;1102;102781;-77
2022/10/10 12:00:18;;;;;;;6.07;1.70;;;;;;;16.53;43.10;101475.33;125498;1102;102363;-77
2022/10/10 12:03:16;;;;;;;6.67;1.70;;;;;;;16.48;43.59;101474.28;124640;1102;102323;-76
2022/10/10 12:05:56;;;;;;;4.25;1.40;;;;;;;16.39;41.71;101458.14;124158;1102;104172;-77
2022/10/10 12:08:37;;;;;;;2.70;1.70;;;;;;;16.35;42.74;101472.17;124365;1102;104746;-76
2022/10/10 12:11:46;;;;;;;3.03;1.90;;;;;;;16.26;41.36;101456.91;124209;1102;109299;-78
2022/10/10 12:14:37;;;;;;;4.73;1.60;;;;;;;16.25;41.54;101465.73;124051;1102;104210;-77
2022/10/10 12:17:28;;;;;;;5.07;1.67;;;;;;;16.24;40.91;101452.45;124253;1102;103157;-76
2022/10/10 12:20:11;;;;;;;9.27;2.27;;;;;;;16.26;41.63;101451.62;124163;1102;103423;-75
2022/10/10 12:26:23;;;;;;;4.30;1.67;;;;;;;16.26;41.72;101451.62;124897;1102;104271;-75
2022/10/10 12:29:14;;;;;;;5.93;1.77;;;;;;;16.29;42.06;101456.11;124913;1102;102244;-75
2022/10/10 12:32:43;;;;;;;4.97;1.57;;;;;;;16.32;42.06;101456.20;124230;1102;103643;-76
2022/10/10 12:35:44;;;;;;;4.37;1.50;;;;;;;16.25;42.02;101455.14;124147;1102;104105;-75
2022/10/10 12:38:42;;;;;;;;;;;;;;;;;;;;;
2022/10/10 12:42:09;;;;;;;;;;;;;;;;;;;;;
2022/10/10 12:44:57;;;;;;;4.20;1.40;;;;;;;16.16;40.35;101455.77;124545;1102;102700;-76
2022/10/10 12:47:41;;;;;;;2.80;1.30;;;;;;;16.14;41.27;101452.19;124448;1102;102880;-75
2022/10/10 12:50:31;;;;;;;3.07;1.57;;;;;;;16.13;41.31;101453.03;124224;1102;104231;-75
2022/10/10 12:53:05;;;;;;;4.00;1.60;;;;;;;16.16;41.24;101452.23;124362;1102;102642;-77
2022/10/10 12:55:44;;;;;;;4.87;1.30;;;;;;;16.16;41.31;101450.48;124380;1102;104306;-76
2022/10/10 13:01:30;;;;;;;7.13;1.57;;;;;;;16.18;41.95;101443.46;125598;1101;103710;-76
2022/10/10 13:04:08;;;;;;;2.37;1.33;;;;;;;16.21;40.96;101455.02;124846;1102;107295;-76
2022/10/10 13:07:00;;;;;;;;;;;;;;;;;;;;;
2022/10/10 13:09:34;;;;;;;3.93;1.33;;;;;;;16.15;41.18;101440.73;124891;1102;104191;-76
2022/10/10 13:12:21;;;;;;;3.27;1.50;;;;;;;16.16;41.46;101441.64;124902;1102;104227;-76
2022/10/10 13:14:52;;;;;;;2.37;1.30;;;;;;;16.14;40.57;101446.90;124132;1102;104254;-76
2022/10/10 13:17:32;;;;;;;4.27;1.80;;;;;;;16.14;40.60;101440.69;124134;1102;104574;-77
2022/10/10 13:20:06;;;;;;;2.10;1.30;;;;;;;16.12;41.29;101440.64;124230;1102;102550;-75
2022/10/10 13:22:38;;;;;;;6.73;2.10;;;;;;;16.10;41.18;101439.71;124188;1102;104192;-76
2022/10/10 13:25:12;;;;;;;2.63;1.60;;;;;;;16.11;40.72;101436.22;124176;1102;104169;-75
2022/10/10 13:27:44;;;;;;;3.75;1.60;;;;;;;16.12;41.17;101439.75;124147;1102;102438;-76
2022/10/10 13:30:22;;;;;;;6.13;1.60;;;;;;;16.11;40.39;101435.30;124170;1102;104176;-76
2022/10/10 13:32:57;;;;;;;3.13;1.30;;;;;;;16.08;40.30;101438.78;124164;1102;102870;-76
2022/10/10 13:35:34;;;;;;;5.50;1.40;;;;;;;16.08;40.57;101440.51;123973;1102;102450;-76
2022/10/10 13:38:10;;;;;;;7.80;1.37;;;;;;;16.05;40.56;101441.34;124229;1102;103653;-75
2022/10/10 13:40:53;;;;;;;4.20;1.30;;;;;;;16.06;40.09;101439.58;124130;1102;104277;-76
2022/10/10 13:43:38;;;;;;;3.77;1.30;;;;;;;16.06;40.27;101442.23;124182;1102;104080;-76
2022/10/10 13:46:23;;;;;;;4.17;1.20;;;;;;;16.06;40.79;101437.81;125580;1102;104195;-76
2022/10/10 13:48:56;;;;;;;4.20;1.57;;;;;;;16.06;40.31;101436.94;124127;1102;104188;-76
2022/10/10 13:54:46;;;;;;;6.10;1.70;;;;;;;16.01;39.91;101433.27;124281;1102;102809;-76
2022/10/10 13:57:27;;;;;;;3.57;1.30;;;;;;;15.99;39.87;101435.88;124002;1102;104228;-74
2022/10/10 14:00:05;;;;;;;4.50;1.30;;;;;;;15.97;40.08;101429.62;124022;1105;104159;-73
2022/10/10 14:02:41;;;;;;;3.30;1.80;;;;;;;15.93;40.16;101431.29;124165;1102;104163;-76
2022/10/10 14:05:24;;;;;;;5.83;2.00;;;;;;;15.93;40.51;101435.70;124169;1102;102266;-77
2022/10/10 14:08:03;;;;;;;5.75;1.70;;;;;;;15.93;40.81;101435.70;124018;1105;104204;-78
2022/10/10 14:10:36;;;;;;;3.33;1.30;;;;;;;15.94;40.33;101437.47;124068;1102;104169;-78
2022/10/10 14:13:24;;;;;;;5.67;1.43;;;;;;;15.92;40.98;101439.19;124020;1105;104306;-77
2022/10/10 14:16:24;;;;;;;5.85;1.55;;;;;;;15.90;39.91;101440.90;124738;1102;117824;-77
2022/10/10 14:19:00;;;;;;;2.60;1.53;;;;;;;15.87;40.38;101443.45;124053;1102;101959;-77
2022/10/10 14:21:35;;;;;;;5.40;1.70;;;;;;;15.86;40.29;101446.95;124039;1105;104159;-77
2022/10/10 14:24:07;;;;;;;7.37;1.60;;;;;;;15.84;40.55;101448.66;124133;1106;104229;-76
2022/10/10 14:26:42;;;;;;;3.67;2.00;;;;;;;15.81;40.08;101446.81;123968;1108;102083;-77
2022/10/10 14:29:15;;;;;;;;;;;;;;;15.78;40.32;101452.02;124000;1102;104245;-76
2022/10/10 14:31:51;;;;;;;3.17;1.53;;;;;;;15.75;40.75;101452.80;124006;1102;101987;-78
2022/10/10 14:34:27;;;;;;;5.97;1.53;;;;;;;15.72;40.62;101452.72;124167;1102;104207;-77
2022/10/10 14:37:03;;;;;;;2.70;1.50;;;;;;;15.68;40.04;101453.46;123927;1102;104245;-77
2022/10/10 14:39:42;;;;;;;4.53;1.80;;;;;;;15.66;40.28;101448.97;124052;1105;104249;-77
2022/10/10 14:42:25;;;;;;;3.63;1.50;;;;;;;15.60;40.06;101453.23;124338;1102;104300;-77
2022/10/10 14:44:58;;;;;;;4.70;1.73;;;;;;;15.56;40.11;101446.04;124291;1102;104069;-78
2022/10/10 14:47:29;;;;;;;6.03;2.10;;;;;;;15.53;40.44;101450.35;124037;1102;104179;-77
2022/10/10 14:50:01;;;;;;;5.30;2.13;;;;;;;15.50;40.17;101450.25;124438;1102;104239;-78
2022/10/10 14:52:32;;;;;;;5.07;1.93;;;;;;;15.45;41.07;101453.64;124557;1102;104245;-78
2022/10/10 14:55:04;;;;;;;5.23;1.60;;;;;;;15.41;40.98;101457.06;124020;1102;104255;-78
2022/10/10 14:57:36;;;;;;;7.23;1.90;;;;;;;15.36;40.78;101452.47;124057;1102;102933;-77
2022/10/10 15:00:13;;;;;;;10.57;2.40;;;;;;;15.30;40.33;101453.16;124096;1102;104179;-77
2022/10/10 15:02:44;;;;;;;6.03;2.67;;;;;;;15.24;40.56;101448.60;124031;1102;102296;-76
2022/10/10 15:05:16;;;;;;;8.30;2.20;;;;;;;15.20;40.62;101459.91;124016;1105;102825;-77
2022/10/10 15:07:52;;;;;;;11.83;2.70;;;;;;;15.15;41.65;101460.63;123929;1106;104263;-77
2022/10/10 15:10:23;;;;;;;7.80;2.73;;;;;;;15.08;41.62;101468.37;123958;1105;105126;-77
2022/10/10 15:12:56;;;;;;;8.27;2.60;;;;;;;15.03;41.26;101459.36;124019;1105;101877;-77
2022/10/10 15:15:27;;;;;;;3.53;2.27;;;;;;;14.98;40.77;101468.02;124033;1105;104166;-77
2022/10/10 15:18:00;;;;;;;6.93;2.23;;;;;;;14.91;41.28;101467.80;124075;1102;102019;-77
2022/10/10 15:20:31;;;;;;;6.63;2.70;;;;;;;14.85;41.34;101475.53;124006;1102;101945;-77
2022/10/10 15:23:05;;;;;;;8.83;2.60;;;;;;;14.79;41.95;101474.39;124042;1102;104336;-77
2022/10/10 15:25:36;;;;;;;7.13;2.53;;;;;;;14.73;42.16;101480.39;124023;1106;104323;-77
2022/10/10 15:28:07;;;;;;;6.50;2.53;;;;;;;14.68;42.17;101474.06;123999;1102;104235;-77
2022/10/10 15:30:39;;;;;;;12.17;2.70;;;;;;;14.61;42.16;101480.85;124021;1102;102349;-77
2022/10/10 15:33:10;;;;;;;8.40;2.97;;;;;;;14.57;41.24;101478.94;124029;1102;101929;-77
2022/10/10 15:35:41;;;;;;;10.23;3.00;;;;;;;14.51;41.68;101479.61;124012;1102;104361;-76
2022/10/10 15:38:13;;;;;;;10.07;3.10;;;;;;;14.43;41.51;101482.81;124068;1102;104181;-77
2022/10/10 15:40:44;;;;;;;11.03;3.40;;;;;;;14.36;41.90;101479.06;124083;1102;102196;-77
2022/10/10 15:43:15;;;;;;;12.15;3.40;;;;;;;14.28;41.77;101486.70;124169;1101;104629;-77
2022/10/10 15:45:47;;;;;;;13.77;3.47;;;;;;;14.21;42.81;101487.34;124158;1102;104288;-78
2022/10/10 15:48:18;;;;;;;21.60;4.00;;;;;;;14.13;42.88;101488.78;124017;1102;104114;-77
2022/10/10 15:50:50;;;;;;;12.40;3.80;;;;;;;14.07;42.36;101486.83;124205;1102;104166;-75
2022/10/10 15:53:22;;;;;;;8.97;3.70;;;;;;;14.02;42.36;101491.94;124136;1102;102832;-75
2022/10/10 15:55:53;;;;;;;8.83;3.50;;;;;;;13.95;42.52;101489.01;124125;1102;104283;-75
2022/10/10 15:58:24;;;;;;;12.67;4.10;;;;;;;13.88;43.21;101494.88;124039;1102;104178;-75
2022/10/10 16:00:56;;;;;;;13.47;4.17;;;;;;;13.81;42.91;101499.92;124095;1102;102174;-75
2022/10/10 16:03:28;;;;;;;14.05;4.15;;;;;;;13.76;42.86;101505.84;124115;1102;104191;-74
2022/10/10 16:06:03;;;;;;;10.87;3.87;;;;;;;13.72;43.25;101506.59;124054;1102;104243;-75
2022/10/10 16:08:35;;;;;;;10.83;3.93;;;;;;;13.68;43.71;101512.58;124206;1102;104319;-75
2022/10/10 16:11:09;;;;;;;15.20;4.27;;;;;;;13.55;43.37;101498.02;124086;1102;104207;-75
2022/10/10 16:13:41;;;;;;;11.05;3.90;;;;;;;13.58;43.00;101517.48;123950;1102;104217;-74
2022/10/10 16:16:12;;;;;;;13.77;4.50;;;;;;;13.53;43.51;101511.14;124022;1102;102829;-75
2022/10/10 16:18:44;;;;;;;16.43;4.33;;;;;;;13.49;43.58;101522.39;123992;1102;104248;-75
2022/10/10 16:21:18;;;;;;;15.70;4.30;;;;;;;13.44;44.07;101521.31;123970;1102;102870;-75
2022/10/10 16:23:53;;;;;;;12.50;4.60;;;;;;;13.41;43.88;101523.83;123954;1105;104642;-75
2022/10/10 16:26:27;;;;;;;12.70;4.20;;;;;;;13.37;43.34;101532.44;123975;1102;104254;-74
2022/10/10 16:28:59;;;;;;;14.77;4.30;;;;;;;13.30;44.13;101537.42;123985;1102;104768;-75
2022/10/10 16:31:31;;;;;;;14.40;5.10;;;;;;;13.27;44.08;101537.30;123950;1102;102839;-75
2022/10/10 16:34:03;;;;;;;13.53;4.50;;;;;;;13.23;43.99;101543.30;123935;1102;104208;-76
2022/10/10 16:36:36;;;;;;;14.50;4.63;;;;;;;13.19;44.04;101541.36;123920;1102;102386;-77
2022/10/10 16:39:07;;;;;;;13.50;4.90;;;;;;;13.15;44.06;101544.72;123958;1102;104081;-77
2022/10/10 16:41:38;;;;;;;14.63;4.97;;;;;;;13.10;44.33;101546.24;124009;1102;104275;-77
2022/10/10 16:44:09;;;;;;;17.53;5.43;;;;;;;13.05;44.73;101545.16;124016;1102;104252;-76
2022/10/10 16:46:41;;;;;;;19.63;5.73;;;;;;;13.01;44.42;101545.85;123988;1102;104297;-77
2022/10/10 16:49:15;;;;;;;17.40;6.07;;;;;;;12.95;44.71;101547.41;123933;1101;117802;-76
2022/10/10 16:51:46;;;;;;;13.97;4.60;;;;;;;12.89;45.01;101548.88;123902;1105;104076;-76
2022/10/10 16:54:17;;;;;;;14.87;4.87;;;;;;;12.85;44.63;101553.09;124019;1102;104233;-76
2022/10/10 16:56:48;;;;;;;15.40;4.83;;;;;;;12.82;44.67;101552.97;123976;1102;104306;-76
2022/10/10 16:59:20;;;;;;;16.70;4.53;;;;;;;12.76;45.00;101545.72;123973;1102;101962;-76
2022/10/10 17:01:51;;;;;;;16.67;4.43;;;;;;;12.72;45.19;101551.67;123966;1102;104223;-76
2022/10/10 17:04:23;;;;;;;12.77;4.67;;;;;;;12.69;45.23;101548.02;123992;1102;103645;-76
2022/10/10 17:06:54;;;;;;;17.40;5.00;;;;;;;12.66;45.26;101547.88;124000;1102;102879;-76
2022/10/10 17:09:33;;;;;;;23.27;6.27;;;;;;;12.62;45.12;101554.75;123968;1102;109867;-76
2022/10/10 17:12:04;;;;;;;20.63;5.57;;;;;;;12.61;45.25;101558.20;124039;1102;102901;-76
2022/10/10 17:14:35;;;;;;;14.80;5.63;;;;;;;12.59;45.58;101559.89;124041;1102;102797;-76
2022/10/10 17:17:06;;;;;;;16.23;5.40;;;;;;;12.54;45.75;101554.41;123893;1102;104357;-77
2022/10/10 17:19:38;;;;;;;16.30;5.83;;;;;;;12.50;45.79;101568.26;123941;1102;104169;-77
2022/10/10 17:22:09;;;;;;;22.63;6.77;;;;;;;12.43;45.79;101563.54;123977;1102;104233;-76
2022/10/10 17:24:40;;;;;;;16.33;6.07;;;;;;;12.33;45.87;101562.23;123937;1102;102850;-76
2022/10/10 17:27:11;;;;;;;18.00;6.70;;;;;;;12.26;45.89;101568.03;123990;1102;102944;-76
2022/10/10 17:29:42;;;;;;;19.73;6.63;;;;;;;12.20;46.31;101559.86;123954;1102;104252;-77
2022/10/10 17:32:13;;;;;;;22.13;6.60;;;;;;;12.14;46.37;101559.57;124024;1102;104551;-76
2022/10/10 17:34:44;;;;;;;17.90;6.20;;;;;;;12.05;46.29;101560.06;123990;1102;104214;-77
2022/10/10 17:37:15;;;;;;;34.77;8.20;;;;;;;11.98;46.48;101555.34;124042;1102;104317;-77
2022/10/10 17:39:47;;;;;;;24.13;6.93;;;;;;;11.91;46.50;101558.50;123993;1105;103550;-76
2022/10/10 17:42:18;;;;;;;23.87;7.93;;;;;;;11.84;46.56;101549.39;124008;1102;103684;-77
2022/10/10 17:44:49;;;;;;;28.27;8.40;;;;;;;11.78;46.83;101547.39;123935;1102;104204;-76
2022/10/10 17:47:20;;;;;;;22.97;8.03;;;;;;;11.71;47.14;101547.03;124028;1102;104277;-76
2022/10/10 17:49:51;;;;;;;26.53;8.30;;;;;;;11.66;47.08;101552.06;123988;1102;104268;-76
2022/10/10 17:52:23;;;;;;;18.97;8.23;;;;;;;11.63;46.88;101551.91;123932;1102;104176;-77
2022/10/10 17:54:54;;;;;;;27.43;9.10;;;;;;;11.64;47.37;101557.25;123997;1102;104239;-76
2022/10/10 17:57:26;;;;;;;25.10;8.90;;;;;;;11.60;47.32;101557.02;124049;1102;104140;-76
2022/10/10 18:00:00;;;;;;;25.83;9.47;;;;;;;11.54;47.17;101556.73;123978;1102;104176;-76
2022/10/10 18:02:31;;;;;;;24.70;8.78;;;;;;;11.53;47.33;101552.28;124025;1102;104252;-76
2022/10/10 18:05:02;;;;;;;29.27;9.77;;;;;;;11.47;47.56;101553.80;123978;1102;102204;-76
2022/10/10 18:07:33;;;;;;;29.70;10.03;;;;;;;11.42;47.45;101544.80;123980;1102;104251;-76
2022/10/10 18:10:07;;;;;;;27.37;9.80;;;;;;;11.39;47.67;101548.98;123971;1101;104284;-76
2022/10/10 18:12:38;;;;;;;25.23;8.68;;;;;;;11.37;47.86;101540.13;124022;1102;102185;-76
2022/10/10 18:15:10;;;;;;;25.53;9.90;;;;;;;11.37;48.08;101541.02;123979;1102;104242;-76
2022/10/10 18:17:41;;;;;;;29.90;10.15;;;;;;;11.34;48.27;101540.88;123951;1102;104242;-76
2022/10/10 18:20:14;;;;;;;25.27;10.20;;;;;;;11.29;48.21;101534.50;123958;1102;104217;-76
2022/10/10 18:22:45;;;;;;;25.33;9.70;;;;;;;11.26;48.41;101536.97;124017;1102;104248;-76
2022/10/10 18:25:16;;;;;;;27.53;10.53;;;;;;;11.24;48.25;101546.52;123950;1102;104242;-76
2022/10/10 18:27:47;;;;;;;30.63;10.97;;;;;;;11.21;48.69;101538.48;123974;1102;104280;-76
2022/10/10 18:30:18;;;;;;;29.67;10.73;;;;;;;11.18;48.87;101538.33;123972;1102;102966;-76
2022/10/10 18:32:50;;;;;;;26.47;9.93;;;;;;;11.15;48.69;101544.31;124000;1102;104246;-76
2022/10/10 18:35:21;;;;;;;26.73;10.37;;;;;;;11.11;48.59;101542.34;124026;1102;104246;-76
2022/10/10 18:37:52;;;;;;;23.50;10.70;;;;;;;11.05;48.97;101535.09;123972;1102;102924;-76
2022/10/10 18:40:23;;;;;;;30.23;10.73;;;;;;;11.03;48.89;101539.38;123999;1102;102197;-76
2022/10/10 18:42:54;;;;;;;25.67;11.30;;;;;;;11.03;49.17;101539.38;123981;1106;104213;-76
2022/10/10 18:45:25;;;;;;;27.97;10.30;;;;;;;10.99;49.09;101536.52;123954;1102;104227;-77
2022/10/10 18:47:57;;;;;;;25.97;10.67;;;;;;;10.94;49.12;101541.53;123946;1102;102850;-76
2022/10/10 18:50:29;;;;;;;25.57;11.23;;;;;;;10.89;49.20;101541.30;123970;1102;104227;-76
2022/10/10 18:53:00;;;;;;;27.53;11.27;;;;;;;10.90;49.61;101542.19;123985;1102;104169;-77
2022/10/10 18:55:32;;;;;;;29.77;11.90;;;;;;;10.87;49.87;101542.03;124025;1102;102828;-76
2022/10/10 18:58:03;;;;;;;27.13;11.40;;;;;;;10.83;49.60;101540.05;123950;1102;104245;-77
2022/10/10 19:00:34;;;;;;;24.83;11.83;;;;;;;10.77;49.44;101538.93;124020;1101;104120;-76
2022/10/10 19:03:06;;;;;;;31.07;11.43;;;;;;;10.76;49.64;101539.74;123985;1102;104211;-76
2022/10/10 19:05:41;;;;;;;31.27;12.33;;;;;;;10.74;49.62;101541.40;124136;1102;104166;-77
2022/10/10 19:08:12;;;;;;;31.10;13.40;;;;;;;10.69;50.05;101545.52;124119;1102;102870;-76
2022/10/10 19:10:48;;;;;;;31.47;15.40;;;;;;;10.67;49.91;101554.12;124016;1102;104230;-76
2022/10/10 19:13:20;;;;;;;39.53;14.73;;;;;;;10.59;49.70;101556.34;124014;1102;103679;-76
2022/10/10 19:15:51;;;;;;;31.33;14.27;;;;;;;10.51;50.06;101550.69;124059;1102;103350;-76
2022/10/10 19:18:23;;;;;;;33.43;14.73;;;;;;;10.47;50.19;101551.38;124065;1102;101832;-76
2022/10/10 19:21:00;;;;;;;31.87;14.30;;;;;;;10.45;49.83;101547.74;124038;1102;103105;-76
2022/10/10 19:23:32;;;;;;;27.67;13.67;;;;;;;10.45;50.37;101547.74;124091;1102;104338;-76
2022/10/10 19:26:05;;;;;;;27.30;13.47;;;;;;;10.43;50.10;101550.28;123949;1102;104080;-77
2022/10/10 19:28:36;;;;;;;;;;;;;;;10.41;50.93;101549.31;124127;1102;104313;-76
2022/10/10 19:31:08;;;;;;;29.23;13.80;;;;;;;10.38;50.56;101546.53;123956;1102;103644;-76
2022/10/10 19:33:40;;;;;;;32.77;13.47;;;;;;;10.38;50.29;101541.28;124050;1102;103679;-76
2022/10/10 19:36:13;;;;;;;30.37;13.27;;;;;;;10.33;50.59;101537.52;124031;1102;104204;-76
2022/10/10 19:38:45;;;;;;;30.03;14.00;;;;;;;10.28;50.94;101543.30;124012;1102;102934;-76
2022/10/10 19:41:16;;;;;;;31.70;13.30;;;;;;;10.20;51.02;101548.13;124034;1102;104236;-77
2022/10/10 19:43:50;;;;;;;36.70;13.63;;;;;;;10.18;50.69;101547.16;124177;1102;104169;-77
2022/10/10 19:46:25;;;;;;;30.33;13.80;;;;;;;10.17;51.11;101540.09;124108;1102;104400;-77
2022/10/10 19:48:59;;;;;;;31.70;13.27;;;;;;;10.11;50.90;101545.90;124155;1102;102325;-77
2022/10/10 19:51:30;;;;;;;30.10;13.27;;;;;;;10.05;51.15;101542.94;123988;1102;104223;-76
2022/10/10 19:54:01;;;;;;;27.17;12.47;;;;;;;9.97;50.96;101546.88;124179;1102;104714;-76
2022/10/10 19:56:32;;;;;;;33.10;13.50;;;;;;;9.81;51.15;101542.52;124149;1102;102867;-76
2022/10/10 19:59:04;;;;;;;32.67;13.70;;;;;;;9.63;51.79;101545.92;124178;1102;104251;-76
2022/10/10 20:01:36;;;;;;;30.97;14.97;;;;;;;9.50;52.59;101552.16;124178;1102;104638;-76
2022/10/10 20:04:07;;;;;;;31.80;15.93;;;;;;;9.41;53.30;101549.05;124179;1102;104064;-76
2022/10/10 20:06:42;;;;;;;31.60;14.60;;;;;;;9.31;52.61;101552.83;124140;1102;104223;-76
2022/10/10 20:09:13;;;;;;;33.77;13.90;;;;;;;9.27;52.81;101548.25;124159;1102;104284;-76
2022/10/10 20:11:44;;;;;;;34.60;14.30;;;;;;;9.24;52.66;101550.70;124192;1100;104258;-76
2022/10/10 20:14:15;;;;;;;29.50;14.13;;;;;;;9.23;52.43;101541.02;124115;1102;104196;-76
2022/10/10 20:16:46;;;;;;;34.20;13.70;;;;;;;9.18;53.13;101539.86;124147;1100;104267;-76
2022/10/10 20:19:17;;;;;;;30.90;13.57;;;;;;;9.12;52.72;101537.78;124140;1102;101852;-76
2022/10/10 20:21:49;;;;;;;31.93;14.33;;;;;;;9.08;53.73;101537.52;124081;1102;103027;-74
2022/10/10 20:24:20;;;;;;;30.70;14.13;;;;;;;9.03;53.61;101542.48;124134;1102;104317;-74
2022/10/10 20:26:53;;;;;;;30.80;13.73;;;;;;;8.95;53.71;101546.38;124139;1102;104335;-74
2022/10/10 20:29:24;;;;;;;32.43;13.50;;;;;;;8.87;53.34;101540.68;124161;1102;104064;-74
2022/10/10 20:31:55;;;;;;;31.30;13.93;;;;;;;8.82;54.02;101544.75;124635;1099;102868;-74
2022/10/10 20:34:26;;;;;;;30.43;13.83;;;;;;;8.80;54.32;101546.35;124696;1099;104983;-74
2022/10/10 20:36:57;;;;;;;29.07;13.30;;;;;;;8.76;54.42;101539.16;124639;1099;104238;-75
2022/10/10 20:39:29;;;;;;;31.90;14.53;;;;;;;8.68;54.25;101540.38;124612;1099;104075;-75
2022/10/10 20:42:00;;;;;;;29.23;13.70;;;;;;;8.59;54.80;101541.64;124586;1099;102819;-74
2022/10/10 20:44:31;;;;;;;33.07;13.73;;;;;;;8.49;56.01;101536.66;124158;1099;104207;-74
2022/10/10 20:47:02;;;;;;;29.67;13.87;;;;;;;8.40;54.86;101534.37;124494;1099;104228;-75
2022/10/10 20:49:33;;;;;;;27.77;12.73;;;;;;;8.32;55.21;101534.70;124172;1099;104179;-74
2022/10/10 20:52:04;;;;;;;27.63;12.80;;;;;;;8.25;55.85;101538.66;124195;1099;102786;-74
2022/10/10 20:54:36;;;;;;;27.63;12.40;;;;;;;8.21;55.42;101536.65;124601;1099;104196;-74
2022/10/10 20:57:07;;;;;;;27.60;11.73;;;;;;;8.16;55.89;101538.09;124567;1099;102845;-74
2022/10/10 20:59:38;;;;;;;25.30;11.93;;;;;;;8.12;56.10;101536.08;124597;1099;104284;-74
2022/10/10 21:02:10;;;;;;;25.60;10.93;;;;;;;8.10;56.23;101539.52;124641;1099;102786;-74
2022/10/10 21:04:41;;;;;;;26.57;11.40;;;;;;;8.08;55.93;101534.99;124566;1099;104220;-74
2022/10/10 21:07:13;;;;;;;25.50;10.67;;;;;;;8.06;56.30;101534.90;124612;1098;104242;-74
2022/10/10 21:09:45;;;;;;;22.33;10.33;;;;;;;8.06;56.43;101534.00;124589;1098;104648;-74
2022/10/10 21:12:17;;;;;;;24.60;10.97;;;;;;;8.04;56.09;101530.38;124622;1099;104313;-74
2022/10/10 21:14:48;;;;;;;25.03;11.33;;;;;;;8.03;56.30;101533.81;124615;1099;104249;-74
2022/10/10 21:17:19;;;;;;;27.20;11.50;;;;;;;8.02;56.98;101534.61;124232;1099;104064;-74
2022/10/10 21:19:50;;;;;;;24.23;11.07;;;;;;;8.00;56.70;101538.85;124575;1099;102880;-75
2022/10/10 21:22:21;;;;;;;26.03;11.23;;;;;;;7.99;56.86;101542.26;124631;1098;104211;-75
2022/10/10 21:24:52;;;;;;;25.87;10.73;;;;;;;7.97;56.65;101536.05;124720;1099;104258;-74
2022/10/10 21:27:24;;;;;;;24.97;11.00;;;;;;;7.95;57.04;101532.41;124600;1099;101948;-74
2022/10/10 21:29:55;;;;;;;27.27;10.97;;;;;;;7.94;56.88;101533.23;124561;1099;104329;-74
2022/10/10 21:32:30;;;;;;;22.80;10.50;;;;;;;7.92;56.93;101525.30;124623;1099;104178;-74
2022/10/10 21:35:02;;;;;;;24.77;11.70;;;;;;;7.88;57.21;101532.05;124611;1099;104271;-75
2022/10/10 21:37:33;;;;;;;25.80;11.90;;;;;;;7.86;57.08;101537.98;124602;1099;102832;-75
2022/10/10 21:40:06;;;;;;;26.07;11.60;;;;;;;7.80;57.53;101541.09;124663;1099;104203;-74
2022/10/10 21:42:37;;;;;;;26.93;11.80;;;;;;;7.75;57.79;101537.30;124125;1099;104280;-74
2022/10/10 21:45:10;;;;;;;28.87;11.90;;;;;;;7.71;57.76;101536.20;124659;1099;104182;-74
2022/10/10 21:47:44;;;;;;;24.47;11.00;;;;;;;7.71;57.48;101535.28;124659;1099;104310;-75
2022/10/10 21:50:15;;;;;;;28.38;10.93;;;;;;;7.68;57.77;101533.40;124659;1098;104201;-75
2022/10/10 21:52:46;;;;;;;28.13;11.30;;;;;;;7.68;57.99;101527.25;124636;1099;104310;-75
2022/10/10 21:55:18;;;;;;;26.83;11.27;;;;;;;7.70;57.68;101530.88;124597;1099;107033;-74
2022/10/10 21:57:49;;;;;;;24.27;11.10;;;;;;;7.72;57.60;101529.27;124637;1099;102806;-74
2022/10/10 22:00:21;;;;;;;27.47;12.00;;;;;;;7.72;57.88;101526.65;124591;1099;104338;-75
2022/10/10 22:02:52;;;;;;;27.07;12.17;;;;;;;7.69;57.67;101526.45;124653;1099;104227;-74
2022/10/10 22:05:23;;;;;;;28.60;12.03;;;;;;;7.64;57.99;101520.94;124651;1099;118715;-75
2022/10/10 22:07:54;;;;;;;27.53;12.67;;;;;;;7.64;57.91;101520.94;124624;1099;104236;-74
2022/10/10 22:10:27;;;;;;;25.77;11.87;;;;;;;7.63;57.95;101521.73;124541;1099;102268;-74
2022/10/10 22:12:58;;;;;;;26.10;11.37;;;;;;;7.62;57.71;101519.95;124574;1099;104185;-75
2022/10/10 22:15:30;;;;;;;26.90;11.23;;;;;;;7.55;58.57;101513.41;124647;1099;102918;-74
2022/10/10 22:18:01;;;;;;;24.70;11.07;;;;;;;7.48;58.75;101519.05;124604;1099;103080;-74
2022/10/10 22:20:32;;;;;;;21.60;10.20;;;;;;;7.38;58.73;101516.64;124620;1099;102229;-75
2022/10/10 22:23:03;;;;;;;23.87;10.53;;;;;;;7.30;59.00;101512.64;124602;1099;104182;-74
2022/10/10 22:25:35;;;;;;;25.33;10.90;;;;;;;7.25;58.91;101512.34;124638;1099;102468;-74
2022/10/10 22:28:06;;;;;;;26.83;11.07;;;;;;;7.21;58.88;101512.93;124594;1099;104271;-74
2022/10/10 22:30:37;;;;;;;26.73;11.17;;;;;;;7.19;59.00;101511.94;124594;1099;104169;-75
2022/10/10 22:33:09;;;;;;;26.70;11.50;;;;;;;7.14;59.18;101514.25;124572;1099;104172;-74